Details for Transavia (Netherlands) at EHAM




Go Back


Latest METAR
Local Time

EHAM 232355Z 08014KT CAVOK M02/M07 Q1023 NOSIG

24/02/2018, 01:14:13

Description
Results
Transavia (Netherlands) Logo
Number of Pilots based at EHAM
2 Pilots Based here
Number of Transavia (Netherlands) Flights Departed from EHAM
12 Flights Departed
Number of Transavia (Netherlands) Flights Arrived at EHAM
11 Flights Arrived
Number of Transavia (Netherlands) Schedules Departing from EHAM
140 Schedules
Number of Transavia (Netherlands) Schedules Arriving at EHAM
142 Schedules
Number of Transavia (Netherlands) Schedules Departing from EHAM availible today
29 Schedules Today
Number of Transavia (Netherlands) Schedules Arriving at EHAM availible today
29 Schedules Today
Average Landing Rate at EHAM
-212 fpm
Transavia (Netherlands) Average Landing Rate at EHAM
-215 fpm
Total Fuel Purchased at EHAM by Transavia (Netherlands)
86,289.16 kgs / 190,233.08 lbs

Pilots Based at EHAM


Pilot ID
Pilot Name
Pilot Rank
No. of Flights
No. of Flying Hours
Youri Rutten
82
194.26
James Hatcher
122
482.05
Content